sensor_id;sensor_type;location;lat;lon;timestamp;P1;durP1;ratioP1;P2;durP2;ratioP2
47523;SDS011;33253;42.144;25.884;2023-05-07T00:00:18;11.18;;;5.60;;
47523;SDS011;33253;42.144;25.884;2023-05-07T00:02:44;9.80;;;5.68;;
47523;SDS011;33253;42.144;25.884;2023-05-07T00:05:10;7.85;;;5.40;;
47523;SDS011;33253;42.144;25.884;2023-05-07T00:07:35;8.40;;;5.18;;
47523;SDS011;33253;42.144;25.884;2023-05-07T00:10:01;8.45;;;5.45;;
47523;SDS011;33253;42.144;25.884;2023-05-07T00:12:27;9.10;;;5.22;;
47523;SDS011;33253;42.144;25.884;2023-05-07T00:14:56;12.35;;;5.45;;
47523;SDS011;33253;42.144;25.884;2023-05-07T00:17:22;10.52;;;5.72;;
47523;SDS011;33253;42.144;25.884;2023-05-07T00:19:48;7.75;;;5.00;;
47523;SDS011;33253;42.144;25.884;2023-05-07T00:22:13;12.27;;;5.40;;
47523;SDS011;33253;42.144;25.884;2023-05-07T00:24:38;7.68;;;5.20;;
47523;SDS011;33253;42.144;25.884;2023-05-07T00:27:04;8.18;;;5.00;;
47523;SDS011;33253;42.144;25.884;2023-05-07T00:29:30;10.43;;;5.00;;
47523;SDS011;33253;42.144;25.884;2023-05-07T00:31:55;6.95;;;5.47;;
47523;SDS011;33253;42.144;25.884;2023-05-07T00:34:21;9.40;;;5.85;;
47523;SDS011;33253;42.144;25.884;2023-05-07T00:36:47;10.02;;;5.55;;
47523;SDS011;33253;42.144;25.884;2023-05-07T00:39:13;9.63;;;5.53;;
47523;SDS011;33253;42.144;25.884;2023-05-07T00:41:38;12.85;;;5.88;;
47523;SDS011;33253;42.144;25.884;2023-05-07T00:44:03;6.50;;;4.65;;
47523;SDS011;33253;42.144;25.884;2023-05-07T00:46:29;7.03;;;4.80;;
47523;SDS011;33253;42.144;25.884;2023-05-07T00:48:55;9.32;;;5.03;;
47523;SDS011;33253;42.144;25.884;2023-05-07T00:51:23;10.40;;;5.30;;
47523;SDS011;33253;42.144;25.884;2023-05-07T00:53:50;10.80;;;5.90;;
47523;SDS011;33253;42.144;25.884;2023-05-07T00:56:15;7.53;;;5.10;;
47523;SDS011;33253;42.144;25.884;2023-05-07T00:58:41;10.40;;;5.43;;
47523;SDS011;33253;42.144;25.884;2023-05-07T01:01:07;10.85;;;5.28;;
47523;SDS011;33253;42.144;25.884;2023-05-07T01:03:32;10.68;;;5.50;;
47523;SDS011;33253;42.144;25.884;2023-05-07T01:05:58;10.60;;;6.13;;
47523;SDS011;33253;42.144;25.884;2023-05-07T01:08:27;9.20;;;5.60;;
47523;SDS011;33253;42.144;25.884;2023-05-07T01:10:55;8.77;;;6.05;;
47523;SDS011;33253;42.144;25.884;2023-05-07T01:13:22;8.63;;;6.47;;
47523;SDS011;33253;42.144;25.884;2023-05-07T01:15:49;11.02;;;6.50;;
47523;SDS011;33253;42.144;25.884;2023-05-07T01:18:14;10.63;;;5.72;;
47523;SDS011;33253;42.144;25.884;2023-05-07T01:20:40;9.43;;;5.93;;
47523;SDS011;33253;42.144;25.884;2023-05-07T01:23:06;10.88;;;6.55;;
47523;SDS011;33253;42.144;25.884;2023-05-07T01:25:32;9.30;;;6.15;;
47523;SDS011;33253;42.144;25.884;2023-05-07T01:27:58;10.98;;;6.50;;
47523;SDS011;33253;42.144;25.884;2023-05-07T01:30:27;9.63;;;5.73;;
47523;SDS011;33253;42.144;25.884;2023-05-07T01:32:56;9.95;;;6.28;;
47523;SDS011;33253;42.144;25.884;2023-05-07T01:35:36;10.73;;;6.13;;
47523;SDS011;33253;42.144;25.884;2023-05-07T01:38:04;8.75;;;5.82;;
47523;SDS011;33253;42.144;25.884;2023-05-07T01:40:31;9.63;;;6.50;;
47523;SDS011;33253;42.144;25.884;2023-05-07T01:42:56;11.10;;;6.25;;
47523;SDS011;33253;42.144;25.884;2023-05-07T01:45:22;10.55;;;6.07;;
47523;SDS011;33253;42.144;25.884;2023-05-07T01:47:49;10.38;;;6.55;;
47523;SDS011;33253;42.144;25.884;2023-05-07T01:50:15;12.52;;;6.65;;
47523;SDS011;33253;42.144;25.884;2023-05-07T01:52:43;10.15;;;5.88;;
47523;SDS011;33253;42.144;25.884;2023-05-07T01:55:08;11.63;;;6.22;;
47523;SDS011;33253;42.144;25.884;2023-05-07T01:57:34;10.07;;;5.90;;
47523;SDS011;33253;42.144;25.884;2023-05-07T02:00:00;9.45;;;6.05;;
47523;SDS011;33253;42.144;25.884;2023-05-07T02:02:26;9.82;;;6.03;;
47523;SDS011;33253;42.144;25.884;2023-05-07T02:04:51;9.07;;;6.07;;
47523;SDS011;33253;42.144;25.884;2023-05-07T02:07:16;10.35;;;6.13;;
47523;SDS011;33253;42.144;25.884;2023-05-07T02:09:42;9.48;;;6.00;;
47523;SDS011;33253;42.144;25.884;2023-05-07T02:12:07;8.15;;;5.80;;
47523;SDS011;33253;42.144;25.884;2023-05-07T02:14:32;9.32;;;6.50;;
47523;SDS011;33253;42.144;25.884;2023-05-07T02:16:58;9.45;;;6.95;;
47523;SDS011;33253;42.144;25.884;2023-05-07T02:19:23;10.68;;;6.75;;
47523;SDS011;33253;42.144;25.884;2023-05-07T02:21:49;9.20;;;6.82;;
47523;SDS011;33253;42.144;25.884;2023-05-07T02:24:15;9.32;;;6.38;;
47523;SDS011;33253;42.144;25.884;2023-05-07T02:26:40;8.05;;;5.70;;
47523;SDS011;33253;42.144;25.884;2023-05-07T02:29:06;8.68;;;6.22;;
47523;SDS011;33253;42.144;25.884;2023-05-07T02:31:32;9.63;;;5.68;;
47523;SDS011;33253;42.144;25.884;2023-05-07T02:33:59;9.20;;;6.13;;
47523;SDS011;33253;42.144;25.884;2023-05-07T02:36:25;10.73;;;7.20;;
47523;SDS011;33253;42.144;25.884;2023-05-07T02:38:51;8.98;;;6.40;;
47523;SDS011;33253;42.144;25.884;2023-05-07T02:41:17;10.20;;;7.20;;
47523;SDS011;33253;42.144;25.884;2023-05-07T02:43:42;11.18;;;7.28;;
47523;SDS011;33253;42.144;25.884;2023-05-07T02:46:08;11.98;;;7.40;;
47523;SDS011;33253;42.144;25.884;2023-05-07T02:48:34;13.63;;;7.68;;
47523;SDS011;33253;42.144;25.884;2023-05-07T02:51:00;12.60;;;7.60;;
47523;SDS011;33253;42.144;25.884;2023-05-07T02:53:26;11.75;;;7.85;;
47523;SDS011;33253;42.144;25.884;2023-05-07T02:55:52;11.63;;;7.43;;
47523;SDS011;33253;42.144;25.884;2023-05-07T02:58:18;9.52;;;7.18;;
47523;SDS011;33253;42.144;25.884;2023-05-07T03:00:44;12.55;;;7.60;;
47523;SDS011;33253;42.144;25.884;2023-05-07T03:03:10;11.35;;;7.93;;
47523;SDS011;33253;42.144;25.884;2023-05-07T03:05:35;10.48;;;7.05;;
47523;SDS011;33253;42.144;25.884;2023-05-07T03:08:01;13.80;;;7.80;;
47523;SDS011;33253;42.144;25.884;2023-05-07T03:10:27;10.02;;;7.30;;
47523;SDS011;33253;42.144;25.884;2023-05-07T03:12:52;10.00;;;7.00;;
47523;SDS011;33253;42.144;25.884;2023-05-07T03:15:17;11.20;;;6.60;;
47523;SDS011;33253;42.144;25.884;2023-05-07T03:17:43;10.38;;;6.70;;
47523;SDS011;33253;42.144;25.884;2023-05-07T03:20:08;12.98;;;6.57;;
47523;SDS011;33253;42.144;25.884;2023-05-07T03:22:34;10.30;;;6.72;;
47523;SDS011;33253;42.144;25.884;2023-05-07T03:25:00;10.45;;;5.93;;
47523;SDS011;33253;42.144;25.884;2023-05-07T03:27:25;7.68;;;5.95;;
47523;SDS011;33253;42.144;25.884;2023-05-07T03:29:51;10.82;;;6.22;;
47523;SDS011;33253;42.144;25.884;2023-05-07T03:32:16;9.68;;;5.93;;
47523;SDS011;33253;42.144;25.884;2023-05-07T03:34:42;8.35;;;5.78;;
47523;SDS011;33253;42.144;25.884;2023-05-07T03:37:07;8.07;;;5.32;;
47523;SDS011;33253;42.144;25.884;2023-05-07T03:39:32;8.23;;;5.82;;
47523;SDS011;33253;42.144;25.884;2023-05-07T03:41:58;7.95;;;5.63;;
47523;SDS011;33253;42.144;25.884;2023-05-07T03:44:23;12.65;;;5.80;;
47523;SDS011;33253;42.144;25.884;2023-05-07T03:46:49;11.10;;;6.35;;
47523;SDS011;33253;42.144;25.884;2023-05-07T03:49:14;12.77;;;6.82;;
47523;SDS011;33253;42.144;25.884;2023-05-07T03:51:39;9.23;;;6.47;;
47523;SDS011;33253;42.144;25.884;2023-05-07T03:54:05;9.60;;;6.72;;
47523;SDS011;33253;42.144;25.884;2023-05-07T03:56:30;10.52;;;6.70;;
47523;SDS011;33253;42.144;25.884;2023-05-07T03:58:56;11.68;;;7.47;;
47523;SDS011;33253;42.144;25.884;2023-05-07T04:01:21;9.38;;;6.18;;
47523;SDS011;33253;42.144;25.884;2023-05-07T04:03:47;7.75;;;5.97;;
47523;SDS011;33253;42.144;25.884;2023-05-07T04:06:12;11.60;;;6.35;;
47523;SDS011;33253;42.144;25.884;2023-05-07T04:08:38;9.07;;;6.20;;
47523;SDS011;33253;42.144;25.884;2023-05-07T04:11:03;9.40;;;7.47;;
47523;SDS011;33253;42.144;25.884;2023-05-07T04:13:29;8.98;;;6.85;;
47523;SDS011;33253;42.144;25.884;2023-05-07T04:15:55;11.32;;;6.95;;
47523;SDS011;33253;42.144;25.884;2023-05-07T04:18:21;11.30;;;7.15;;
47523;SDS011;33253;42.144;25.884;2023-05-07T04:20:47;14.77;;;7.60;;
47523;SDS011;33253;42.144;25.884;2023-05-07T04:23:14;11.27;;;6.95;;
47523;SDS011;33253;42.144;25.884;2023-05-07T04:25:39;10.65;;;6.82;;
47523;SDS011;33253;42.144;25.884;2023-05-07T04:28:05;12.13;;;8.02;;
47523;SDS011;33253;42.144;25.884;2023-05-07T04:30:31;10.40;;;7.85;;
47523;SDS011;33253;42.144;25.884;2023-05-07T04:32:56;12.00;;;7.40;;
47523;SDS011;33253;42.144;25.884;2023-05-07T04:35:22;10.77;;;7.55;;
47523;SDS011;33253;42.144;25.884;2023-05-07T04:37:47;12.43;;;7.32;;
47523;SDS011;33253;42.144;25.884;2023-05-07T04:40:12;13.88;;;8.13;;
47523;SDS011;33253;42.144;25.884;2023-05-07T04:42:38;10.75;;;7.90;;
47523;SDS011;33253;42.144;25.884;2023-05-07T04:45:04;9.70;;;7.30;;
47523;SDS011;33253;42.144;25.884;2023-05-07T04:47:30;11.00;;;7.75;;
47523;SDS011;33253;42.144;25.884;2023-05-07T04:49:56;17.08;;;7.80;;
47523;SDS011;33253;42.144;25.884;2023-05-07T04:52:23;12.48;;;7.70;;
47523;SDS011;33253;42.144;25.884;2023-05-07T04:54:48;15.18;;;8.75;;
47523;SDS011;33253;42.144;25.884;2023-05-07T04:57:13;12.50;;;7.45;;
47523;SDS011;33253;42.144;25.884;2023-05-07T04:59:39;13.43;;;7.82;;
47523;SDS011;33253;42.144;25.884;2023-05-07T05:02:04;12.73;;;8.43;;
47523;SDS011;33253;42.144;25.884;2023-05-07T05:04:30;11.73;;;7.93;;
47523;SDS011;33253;42.144;25.884;2023-05-07T05:06:55;13.40;;;7.47;;
47523;SDS011;33253;42.144;25.884;2023-05-07T05:09:21;12.55;;;7.63;;
47523;SDS011;33253;42.144;25.884;2023-05-07T05:11:47;9.65;;;7.15;;
47523;SDS011;33253;42.144;25.884;2023-05-07T05:14:12;11.15;;;8.00;;
47523;SDS011;33253;42.144;25.884;2023-05-07T05:16:38;13.40;;;7.55;;
47523;SDS011;33253;42.144;25.884;2023-05-07T05:19:03;11.02;;;7.78;;
47523;SDS011;33253;42.144;25.884;2023-05-07T05:21:28;11.55;;;7.30;;
47523;SDS011;33253;42.144;25.884;2023-05-07T05:23:54;11.52;;;8.18;;
47523;SDS011;33253;42.144;25.884;2023-05-07T05:26:19;13.65;;;7.78;;
47523;SDS011;33253;42.144;25.884;2023-05-07T05:28:46;13.07;;;7.20;;
47523;SDS011;33253;42.144;25.884;2023-05-07T05:31:12;11.77;;;7.75;;
47523;SDS011;33253;42.144;25.884;2023-05-07T05:33:37;16.42;;;8.13;;
47523;SDS011;33253;42.144;25.884;2023-05-07T05:36:03;12.55;;;7.57;;
47523;SDS011;33253;42.144;25.884;2023-05-07T05:38:28;12.55;;;6.95;;
47523;SDS011;33253;42.144;25.884;2023-05-07T05:40:54;17.73;;;7.85;;
47523;SDS011;33253;42.144;25.884;2023-05-07T05:43:19;15.15;;;7.43;;
47523;SDS011;33253;42.144;25.884;2023-05-07T05:45:45;16.15;;;7.55;;
47523;SDS011;33253;42.144;25.884;2023-05-07T05:48:10;13.75;;;7.18;;
47523;SDS011;33253;42.144;25.884;2023-05-07T05:50:36;13.63;;;6.97;;
47523;SDS011;33253;42.144;25.884;2023-05-07T05:53:02;11.95;;;7.00;;
47523;SDS011;33253;42.144;25.884;2023-05-07T05:55:28;12.77;;;7.22;;
47523;SDS011;33253;42.144;25.884;2023-05-07T05:57:53;20.33;;;7.60;;
47523;SDS011;33253;42.144;25.884;2023-05-07T06:00:18;10.13;;;6.50;;
47523;SDS011;33253;42.144;25.884;2023-05-07T06:02:47;15.40;;;6.85;;
47523;SDS011;33253;42.144;25.884;2023-05-07T06:05:13;15.05;;;6.82;;
47523;SDS011;33253;42.144;25.884;2023-05-07T06:07:38;11.15;;;6.80;;
47523;SDS011;33253;42.144;25.884;2023-05-07T06:10:06;9.75;;;6.03;;
47523;SDS011;33253;42.144;25.884;2023-05-07T06:12:31;8.73;;;6.18;;
47523;SDS011;33253;42.144;25.884;2023-05-07T06:14:57;13.05;;;6.70;;
47523;SDS011;33253;42.144;25.884;2023-05-07T06:17:22;10.60;;;6.43;;
47523;SDS011;33253;42.144;25.884;2023-05-07T06:19:48;8.88;;;5.95;;
47523;SDS011;33253;42.144;25.884;2023-05-07T06:22:13;10.02;;;5.80;;
47523;SDS011;33253;42.144;25.884;2023-05-07T06:24:39;10.68;;;6.15;;
47523;SDS011;33253;42.144;25.884;2023-05-07T06:27:04;10.65;;;5.85;;
47523;SDS011;33253;42.144;25.884;2023-05-07T06:29:30;11.38;;;6.30;;
47523;SDS011;33253;42.144;25.884;2023-05-07T06:32:05;8.27;;;5.28;;
47523;SDS011;33253;42.144;25.884;2023-05-07T06:34:35;10.73;;;5.80;;
47523;SDS011;33253;42.144;25.884;2023-05-07T06:37:00;10.32;;;6.00;;
47523;SDS011;33253;42.144;25.884;2023-05-07T06:39:26;9.88;;;4.85;;
47523;SDS011;33253;42.144;25.884;2023-05-07T06:41:52;6.85;;;3.85;;
47523;SDS011;33253;42.144;25.884;2023-05-07T06:44:17;7.70;;;3.47;;
47523;SDS011;33253;42.144;25.884;2023-05-07T06:46:42;5.22;;;3.20;;
47523;SDS011;33253;42.144;25.884;2023-05-07T06:49:08;6.78;;;3.92;;
47523;SDS011;33253;42.144;25.884;2023-05-07T06:51:33;7.25;;;3.42;;
47523;SDS011;33253;42.144;25.884;2023-05-07T06:53:59;7.40;;;3.40;;
47523;SDS011;33253;42.144;25.884;2023-05-07T06:56:25;9.77;;;3.78;;
47523;SDS011;33253;42.144;25.884;2023-05-07T06:58:50;10.07;;;3.80;;
47523;SDS011;33253;42.144;25.884;2023-05-07T07:01:16;7.57;;;3.67;;
47523;SDS011;33253;42.144;25.884;2023-05-07T07:03:41;9.15;;;3.50;;
47523;SDS011;33253;42.144;25.884;2023-05-07T07:06:07;10.98;;;3.85;;
47523;SDS011;33253;42.144;25.884;2023-05-07T07:08:32;10.85;;;3.80;;
47523;SDS011;33253;42.144;25.884;2023-05-07T07:10:58;9.43;;;3.88;;
47523;SDS011;33253;42.144;25.884;2023-05-07T07:13:23;18.70;;;4.68;;
47523;SDS011;33253;42.144;25.884;2023-05-07T07:15:49;13.30;;;4.03;;
47523;SDS011;33253;42.144;25.884;2023-05-07T07:18:14;13.20;;;4.13;;
47523;SDS011;33253;42.144;25.884;2023-05-07T07:20:40;11.98;;;4.78;;
47523;SDS011;33253;42.144;25.884;2023-05-07T07:23:05;20.17;;;5.28;;
47523;SDS011;33253;42.144;25.884;2023-05-07T07:25:31;14.90;;;4.30;;
47523;SDS011;33253;42.144;25.884;2023-05-07T07:27:56;16.83;;;4.38;;
47523;SDS011;33253;42.144;25.884;2023-05-07T07:30:22;12.65;;;4.43;;
47523;SDS011;33253;42.144;25.884;2023-05-07T07:32:47;9.55;;;3.70;;
47523;SDS011;33253;42.144;25.884;2023-05-07T07:35:13;11.50;;;4.70;;
47523;SDS011;33253;42.144;25.884;2023-05-07T07:37:38;20.70;;;5.35;;
47523;SDS011;33253;42.144;25.884;2023-05-07T07:40:04;10.00;;;3.65;;
47523;SDS011;33253;42.144;25.884;2023-05-07T07:42:30;8.98;;;3.70;;
47523;SDS011;33253;42.144;25.884;2023-05-07T07:44:55;7.28;;;3.35;;
47523;SDS011;33253;42.144;25.884;2023-05-07T07:47:22;7.85;;;2.95;;
47523;SDS011;33253;42.144;25.884;2023-05-07T07:49:47;17.63;;;4.20;;
47523;SDS011;33253;42.144;25.884;2023-05-07T07:52:13;18.48;;;4.90;;
47523;SDS011;33253;42.144;25.884;2023-05-07T07:54:38;13.70;;;3.40;;
47523;SDS011;33253;42.144;25.884;2023-05-07T07:57:03;10.52;;;3.58;;
47523;SDS011;33253;42.144;25.884;2023-05-07T07:59:29;13.23;;;3.33;;
47523;SDS011;33253;42.144;25.884;2023-05-07T08:01:54;4.50;;;2.70;;
47523;SDS011;33253;42.144;25.884;2023-05-07T08:04:21;11.75;;;4.05;;
47523;SDS011;33253;42.144;25.884;2023-05-07T08:06:48;6.50;;;3.10;;
47523;SDS011;33253;42.144;25.884;2023-05-07T08:09:14;6.93;;;2.40;;
47523;SDS011;33253;42.144;25.884;2023-05-07T08:11:39;4.63;;;2.20;;
47523;SDS011;33253;42.144;25.884;2023-05-07T08:14:05;5.95;;;2.35;;
47523;SDS011;33253;42.144;25.884;2023-05-07T08:16:31;5.88;;;2.42;;
47523;SDS011;33253;42.144;25.884;2023-05-07T08:18:56;6.30;;;2.45;;
47523;SDS011;33253;42.144;25.884;2023-05-07T08:21:22;5.93;;;1.95;;
47523;SDS011;33253;42.144;25.884;2023-05-07T08:23:47;5.95;;;2.53;;
47523;SDS011;33253;42.144;25.884;2023-05-07T08:26:13;6.25;;;2.60;;
47523;SDS011;33253;42.144;25.884;2023-05-07T08:28:41;9.10;;;2.45;;
47523;SDS011;33253;42.144;25.884;2023-05-07T08:31:06;4.03;;;2.10;;
47523;SDS011;33253;42.144;25.884;2023-05-07T08:33:32;5.97;;;2.30;;
47523;SDS011;33253;42.144;25.884;2023-05-07T08:35:57;5.38;;;2.13;;
47523;SDS011;33253;42.144;25.884;2023-05-07T08:38:23;5.82;;;1.85;;
47523;SDS011;33253;42.144;25.884;2023-05-07T08:40:49;4.75;;;1.90;;
47523;SDS011;33253;42.144;25.884;2023-05-07T08:43:15;4.85;;;2.13;;
47523;SDS011;33253;42.144;25.884;2023-05-07T08:45:41;6.72;;;1.90;;
47523;SDS011;33253;42.144;25.884;2023-05-07T08:48:16;4.37;;;2.30;;
47523;SDS011;33253;42.144;25.884;2023-05-07T08:50:42;9.68;;;2.30;;
47523;SDS011;33253;42.144;25.884;2023-05-07T08:53:08;3.60;;;1.85;;
47523;SDS011;33253;42.144;25.884;2023-05-07T08:55:33;19.75;;;3.83;;
47523;SDS011;33253;42.144;25.884;2023-05-07T08:57:59;11.52;;;2.53;;
47523;SDS011;33253;42.144;25.884;2023-05-07T09:00:26;8.32;;;2.10;;
47523;SDS011;33253;42.144;25.884;2023-05-07T09:02:52;6.13;;;2.20;;
47523;SDS011;33253;42.144;25.884;2023-05-07T09:05:18;5.70;;;2.08;;
47523;SDS011;33253;42.144;25.884;2023-05-07T09:07:44;5.88;;;2.13;;
47523;SDS011;33253;42.144;25.884;2023-05-07T09:10:10;6.57;;;1.98;;
47523;SDS011;33253;42.144;25.884;2023-05-07T09:12:36;4.70;;;1.77;;
47523;SDS011;33253;42.144;25.884;2023-05-07T09:15:02;4.22;;;2.17;;
47523;SDS011;33253;42.144;25.884;2023-05-07T09:17:28;14.70;;;3.00;;
47523;SDS011;33253;42.144;25.884;2023-05-07T09:19:54;4.10;;;1.88;;
47523;SDS011;33253;42.144;25.884;2023-05-07T09:22:20;6.35;;;1.83;;
47523;SDS011;33253;42.144;25.884;2023-05-07T09:24:49;3.97;;;1.55;;
47523;SDS011;33253;42.144;25.884;2023-05-07T09:27:15;8.13;;;2.30;;
47523;SDS011;33253;42.144;25.884;2023-05-07T09:29:43;3.08;;;1.77;;
47523;SDS011;33253;42.144;25.884;2023-05-07T09:32:08;5.80;;;2.25;;
47523;SDS011;33253;42.144;25.884;2023-05-07T09:34:34;4.25;;;1.95;;
47523;SDS011;33253;42.144;25.884;2023-05-07T09:37:03;20.52;;;4.80;;
47523;SDS011;33253;42.144;25.884;2023-05-07T09:39:40;9.40;;;2.80;;
47523;SDS011;33253;42.144;25.884;2023-05-07T09:42:05;2.75;;;1.60;;
47523;SDS011;33253;42.144;25.884;2023-05-07T09:44:31;3.60;;;1.88;;
47523;SDS011;33253;42.144;25.884;2023-05-07T09:46:57;4.35;;;1.60;;
47523;SDS011;33253;42.144;25.884;2023-05-07T09:49:25;4.88;;;1.90;;
47523;SDS011;33253;42.144;25.884;2023-05-07T09:51:57;5.78;;;2.13;;
47523;SDS011;33253;42.144;25.884;2023-05-07T09:54:25;4.82;;;1.70;;
47523;SDS011;33253;42.144;25.884;2023-05-07T09:56:54;11.00;;;2.95;;
47523;SDS011;33253;42.144;25.884;2023-05-07T09:59:20;9.23;;;2.38;;
47523;SDS011;33253;42.144;25.884;2023-05-07T10:01:49;3.72;;;1.45;;
47523;SDS011;33253;42.144;25.884;2023-05-07T10:04:17;7.72;;;2.35;;
47523;SDS011;33253;42.144;25.884;2023-05-07T10:06:44;6.65;;;2.20;;
47523;SDS011;33253;42.144;25.884;2023-05-07T10:09:10;6.43;;;1.77;;
47523;SDS011;33253;42.144;25.884;2023-05-07T10:11:37;3.42;;;1.83;;
47523;SDS011;33253;42.144;25.884;2023-05-07T10:14:04;3.53;;;1.70;;
47523;SDS011;33253;42.144;25.884;2023-05-07T10:16:33;6.10;;;2.00;;
47523;SDS011;33253;42.144;25.884;2023-05-07T10:19:04;5.72;;;1.95;;
47523;SDS011;33253;42.144;25.884;2023-05-07T10:21:30;2.88;;;1.67;;
47523;SDS011;33253;42.144;25.884;2023-05-07T10:26:45;4.82;;;2.20;;
47523;SDS011;33253;42.144;25.884;2023-05-07T10:31:57;4.53;;;1.58;;
47523;SDS011;33253;42.144;25.884;2023-05-07T10:34:32;3.22;;;1.98;;
47523;SDS011;33253;42.144;25.884;2023-05-07T10:37:02;3.83;;;1.60;;
47523;SDS011;33253;42.144;25.884;2023-05-07T10:39:29;8.13;;;1.70;;
47523;SDS011;33253;42.144;25.884;2023-05-07T10:41:55;2.72;;;1.70;;
47523;SDS011;33253;42.144;25.884;2023-05-07T10:44:25;5.60;;;2.20;;
47523;SDS011;33253;42.144;25.884;2023-05-07T10:47:04;5.93;;;1.95;;
47523;SDS011;33253;42.144;25.884;2023-05-07T10:49:31;4.03;;;1.75;;
47523;SDS011;33253;42.144;25.884;2023-05-07T10:54:55;16.83;;;3.85;;
47523;SDS011;33253;42.144;25.884;2023-05-07T10:57:50;5.57;;;1.88;;
47523;SDS011;33253;42.144;25.884;2023-05-07T11:00:40;6.20;;;2.05;;
47523;SDS011;33253;42.144;25.884;2023-05-07T11:03:04;9.25;;;2.30;;
47523;SDS011;33253;42.144;25.884;2023-05-07T11:05:32;8.02;;;2.75;;
47523;SDS011;33253;42.144;25.884;2023-05-07T11:08:01;14.85;;;2.85;;
47523;SDS011;33253;42.144;25.884;2023-05-07T11:10:47;11.07;;;3.33;;
47523;SDS011;33253;42.144;25.884;2023-05-07T11:16:18;8.02;;;2.50;;
47523;SDS011;33253;42.144;25.884;2023-05-07T11:18:51;5.35;;;2.03;;
47523;SDS011;33253;42.144;25.884;2023-05-07T11:21:34;4.55;;;2.13;;
47523;SDS011;33253;42.144;25.884;2023-05-07T11:24:04;4.03;;;1.95;;
47523;SDS011;33253;42.144;25.884;2023-05-07T11:26:45;4.05;;;1.60;;
47523;SDS011;33253;42.144;25.884;2023-05-07T11:29:16;5.82;;;2.08;;
47523;SDS011;33253;42.144;25.884;2023-05-07T11:31:43;3.47;;;1.77;;
47523;SDS011;33253;42.144;25.884;2023-05-07T11:34:09;3.85;;;2.00;;
47523;SDS011;33253;42.144;25.884;2023-05-07T11:36:35;4.25;;;1.70;;
47523;SDS011;33253;42.144;25.884;2023-05-07T11:39:01;3.33;;;1.77;;
47523;SDS011;33253;42.144;25.884;2023-05-07T11:41:35;11.85;;;2.80;;
47523;SDS011;33253;42.144;25.884;2023-05-07T11:44:02;7.30;;;1.98;;
47523;SDS011;33253;42.144;25.884;2023-05-07T11:46:28;6.60;;;1.90;;
47523;SDS011;33253;42.144;25.884;2023-05-07T11:48:54;7.38;;;2.05;;
47523;SDS011;33253;42.144;25.884;2023-05-07T11:51:21;6.82;;;2.00;;
47523;SDS011;33253;42.144;25.884;2023-05-07T11:53:49;6.50;;;1.98;;
47523;SDS011;33253;42.144;25.884;2023-05-07T11:56:16;5.60;;;1.58;;
47523;SDS011;33253;42.144;25.884;2023-05-07T11:58:43;3.22;;;1.48;;
47523;SDS011;33253;42.144;25.884;2023-05-07T12:01:10;5.30;;;1.48;;
47523;SDS011;33253;42.144;25.884;2023-05-07T12:03:37;4.97;;;2.00;;
47523;SDS011;33253;42.144;25.884;2023-05-07T12:06:09;4.35;;;1.80;;
47523;SDS011;33253;42.144;25.884;2023-05-07T12:08:36;3.33;;;1.70;;
47523;SDS011;33253;42.144;25.884;2023-05-07T12:11:03;7.32;;;1.98;;
47523;SDS011;33253;42.144;25.884;2023-05-07T12:13:31;4.57;;;1.80;;
47523;SDS011;33253;42.144;25.884;2023-05-07T12:15:57;8.05;;;2.45;;
47523;SDS011;33253;42.144;25.884;2023-05-07T12:18:22;4.90;;;2.22;;
47523;SDS011;33253;42.144;25.884;2023-05-07T12:20:48;7.20;;;1.77;;
47523;SDS011;33253;42.144;25.884;2023-05-07T12:23:15;1.95;;;1.58;;
47523;SDS011;33253;42.144;25.884;2023-05-07T12:25:41;2.08;;;1.50;;
47523;SDS011;33253;42.144;25.884;2023-05-07T12:28:14;4.13;;;1.67;;
47523;SDS011;33253;42.144;25.884;2023-05-07T12:30:41;2.90;;;1.50;;
47523;SDS011;33253;42.144;25.884;2023-05-07T12:33:08;3.38;;;1.75;;
47523;SDS011;33253;42.144;25.884;2023-05-07T12:35:38;3.70;;;2.00;;
47523;SDS011;33253;42.144;25.884;2023-05-07T12:38:09;2.78;;;1.55;;
47523;SDS011;33253;42.144;25.884;2023-05-07T12:40:45;4.45;;;1.75;;
47523;SDS011;33253;42.144;25.884;2023-05-07T12:43:18;5.05;;;2.10;;
47523;SDS011;33253;42.144;25.884;2023-05-07T12:45:55;9.75;;;2.13;;
47523;SDS011;33253;42.144;25.884;2023-05-07T12:48:29;7.80;;;1.85;;
47523;SDS011;33253;42.144;25.884;2023-05-07T12:50:55;3.65;;;1.85;;
47523;SDS011;33253;42.144;25.884;2023-05-07T12:53:22;4.00;;;1.63;;
47523;SDS011;33253;42.144;25.884;2023-05-07T12:55:50;4.35;;;1.83;;
47523;SDS011;33253;42.144;25.884;2023-05-07T12:58:21;4.18;;;1.85;;
47523;SDS011;33253;42.144;25.884;2023-05-07T13:00:50;5.68;;;1.50;;
47523;SDS011;33253;42.144;25.884;2023-05-07T13:03:26;5.68;;;1.90;;
47523;SDS011;33253;42.144;25.884;2023-05-07T13:05:55;2.53;;;1.63;;
47523;SDS011;33253;42.144;25.884;2023-05-07T13:08:23;6.60;;;1.93;;
47523;SDS011;33253;42.144;25.884;2023-05-07T13:10:53;5.07;;;1.90;;
47523;SDS011;33253;42.144;25.884;2023-05-07T13:13:18;7.38;;;2.10;;
47523;SDS011;33253;42.144;25.884;2023-05-07T13:15:45;3.13;;;1.80;;
47523;SDS011;33253;42.144;25.884;2023-05-07T13:18:12;5.10;;;1.85;;
47523;SDS011;33253;42.144;25.884;2023-05-07T13:20:38;4.00;;;1.90;;
47523;SDS011;33253;42.144;25.884;2023-05-07T13:23:03;12.55;;;2.92;;
47523;SDS011;33253;42.144;25.884;2023-05-07T13:25:29;5.85;;;2.15;;
47523;SDS011;33253;42.144;25.884;2023-05-07T13:27:56;5.60;;;1.80;;
47523;SDS011;33253;42.144;25.884;2023-05-07T13:30:22;10.50;;;2.55;;
47523;SDS011;33253;42.144;25.884;2023-05-07T13:32:48;5.22;;;1.80;;
47523;SDS011;33253;42.144;25.884;2023-05-07T13:35:15;3.03;;;1.63;;
47523;SDS011;33253;42.144;25.884;2023-05-07T13:37:41;5.65;;;1.85;;
47523;SDS011;33253;42.144;25.884;2023-05-07T13:40:07;9.50;;;2.53;;
47523;SDS011;33253;42.144;25.884;2023-05-07T13:42:33;13.77;;;3.00;;
47523;SDS011;33253;42.144;25.884;2023-05-07T13:44:58;3.72;;;2.00;;
47523;SDS011;33253;42.144;25.884;2023-05-07T13:47:23;6.03;;;2.10;;
47523;SDS011;33253;42.144;25.884;2023-05-07T13:49:49;7.80;;;2.05;;
47523;SDS011;33253;42.144;25.884;2023-05-07T13:52:16;3.22;;;1.90;;
47523;SDS011;33253;42.144;25.884;2023-05-07T13:54:42;3.78;;;1.70;;
47523;SDS011;33253;42.144;25.884;2023-05-07T13:57:07;7.03;;;1.77;;
47523;SDS011;33253;42.144;25.884;2023-05-07T13:59:33;8.70;;;2.13;;
47523;SDS011;33253;42.144;25.884;2023-05-07T14:01:58;4.43;;;1.90;;
47523;SDS011;33253;42.144;25.884;2023-05-07T14:04:24;3.53;;;1.65;;
47523;SDS011;33253;42.144;25.884;2023-05-07T14:06:50;5.15;;;1.90;;
47523;SDS011;33253;42.144;25.884;2023-05-07T14:09:16;2.40;;;1.60;;
47523;SDS011;33253;42.144;25.884;2023-05-07T14:11:41;5.75;;;1.60;;
47523;SDS011;33253;42.144;25.884;2023-05-07T14:14:07;4.32;;;1.70;;
47523;SDS011;33253;42.144;25.884;2023-05-07T14:16:32;3.60;;;1.70;;
47523;SDS011;33253;42.144;25.884;2023-05-07T14:18:57;3.88;;;1.73;;
47523;SDS011;33253;42.144;25.884;2023-05-07T14:21:23;4.80;;;1.92;;
47523;SDS011;33253;42.144;25.884;2023-05-07T14:23:48;2.97;;;1.70;;
47523;SDS011;33253;42.144;25.884;2023-05-07T14:26:14;2.80;;;1.50;;
47523;SDS011;33253;42.144;25.884;2023-05-07T14:28:39;2.30;;;1.42;;
47523;SDS011;33253;42.144;25.884;2023-05-07T14:31:07;3.38;;;1.55;;
47523;SDS011;33253;42.144;25.884;2023-05-07T14:33:32;3.42;;;1.85;;
47523;SDS011;33253;42.144;25.884;2023-05-07T14:35:58;2.55;;;1.52;;